sensor_id;sensor_type;location;lat;lon;timestamp;P1;durP1;ratioP1;P2;durP2;ratioP2
84309;SDS011;74488;49.036;11.472;2024-03-07T00:00:23;32.58;;;20.42;;
84309;SDS011;74488;49.036;11.472;2024-03-07T00:01:24;30.95;;;20.50;;
84309;SDS011;74488;49.036;11.472;2024-03-07T00:02:28;37.03;;;23.55;;
84309;SDS011;74488;49.036;11.472;2024-03-07T00:03:29;36.05;;;22.73;;
84309;SDS011;74488;49.036;11.472;2024-03-07T00:04:31;35.10;;;22.30;;
84309;SDS011;74488;49.036;11.472;2024-03-07T00:05:32;35.53;;;22.60;;
84309;SDS011;74488;49.036;11.472;2024-03-07T00:06:34;31.75;;;23.38;;
84309;SDS011;74488;49.036;11.472;2024-03-07T00:07:36;33.75;;;21.52;;
84309;SDS011;74488;49.036;11.472;2024-03-07T00:08:38;36.03;;;22.38;;
84309;SDS011;74488;49.036;11.472;2024-03-07T00:09:40;35.53;;;22.05;;
84309;SDS011;74488;49.036;11.472;2024-03-07T00:10:41;36.83;;;21.45;;
84309;SDS011;74488;49.036;11.472;2024-03-07T00:11:45;36.78;;;21.55;;
84309;SDS011;74488;49.036;11.472;2024-03-07T00:12:47;34.78;;;21.92;;
84309;SDS011;74488;49.036;11.472;2024-03-07T00:13:49;30.00;;;20.90;;
84309;SDS011;74488;49.036;11.472;2024-03-07T00:14:50;32.60;;;21.27;;
84309;SDS011;74488;49.036;11.472;2024-03-07T00:15:52;33.13;;;22.77;;
84309;SDS011;74488;49.036;11.472;2024-03-07T00:16:55;31.70;;;22.42;;
84309;SDS011;74488;49.036;11.472;2024-03-07T00:17:57;32.80;;;21.80;;
84309;SDS011;74488;49.036;11.472;2024-03-07T00:18:59;32.35;;;22.20;;
84309;SDS011;74488;49.036;11.472;2024-03-07T00:20:02;35.88;;;21.33;;
84309;SDS011;74488;49.036;11.472;2024-03-07T00:21:05;34.70;;;20.85;;
84309;SDS011;74488;49.036;11.472;2024-03-07T00:22:07;35.03;;;22.63;;
84309;SDS011;74488;49.036;11.472;2024-03-07T00:23:08;33.42;;;21.30;;
84309;SDS011;74488;49.036;11.472;2024-03-07T00:24:10;36.20;;;23.73;;
84309;SDS011;74488;49.036;11.472;2024-03-07T00:25:12;29.55;;;21.58;;
84309;SDS011;74488;49.036;11.472;2024-03-07T00:27:17;34.75;;;22.45;;
84309;SDS011;74488;49.036;11.472;2024-03-07T00:28:20;32.92;;;21.75;;
84309;SDS011;74488;49.036;11.472;2024-03-07T00:29:22;33.97;;;21.48;;
84309;SDS011;74488;49.036;11.472;2024-03-07T00:30:24;32.50;;;23.10;;
84309;SDS011;74488;49.036;11.472;2024-03-07T00:31:25;32.70;;;21.58;;
84309;SDS011;74488;49.036;11.472;2024-03-07T00:32:27;34.85;;;21.10;;
84309;SDS011;74488;49.036;11.472;2024-03-07T00:33:31;38.80;;;23.67;;
84309;SDS011;74488;49.036;11.472;2024-03-07T00:34:54;35.05;;;21.70;;
84309;SDS011;74488;49.036;11.472;2024-03-07T00:35:55;35.47;;;24.15;;
84309;SDS011;74488;49.036;11.472;2024-03-07T00:36:57;33.47;;;22.25;;
84309;SDS011;74488;49.036;11.472;2024-03-07T00:38:00;36.25;;;23.90;;
84309;SDS011;74488;49.036;11.472;2024-03-07T00:39:01;35.60;;;23.08;;
84309;SDS011;74488;49.036;11.472;2024-03-07T00:40:03;37.35;;;22.38;;
84309;SDS011;74488;49.036;11.472;2024-03-07T00:41:05;32.38;;;21.83;;
84309;SDS011;74488;49.036;11.472;2024-03-07T00:42:07;34.97;;;24.02;;
84309;SDS011;74488;49.036;11.472;2024-03-07T00:43:08;33.38;;;24.48;;
84309;SDS011;74488;49.036;11.472;2024-03-07T00:44:10;36.85;;;23.55;;
84309;SDS011;74488;49.036;11.472;2024-03-07T00:45:11;35.17;;;22.40;;
84309;SDS011;74488;49.036;11.472;2024-03-07T00:46:13;32.88;;;24.00;;
84309;SDS011;74488;49.036;11.472;2024-03-07T00:47:15;34.10;;;21.55;;
84309;SDS011;74488;49.036;11.472;2024-03-07T00:49:20;34.60;;;22.08;;
84309;SDS011;74488;49.036;11.472;2024-03-07T00:50:22;32.20;;;23.00;;
84309;SDS011;74488;49.036;11.472;2024-03-07T00:51:23;34.42;;;23.90;;
84309;SDS011;74488;49.036;11.472;2024-03-07T00:52:25;35.33;;;23.65;;
84309;SDS011;74488;49.036;11.472;2024-03-07T00:53:26;38.17;;;23.08;;
84309;SDS011;74488;49.036;11.472;2024-03-07T00:54:28;35.15;;;24.27;;
84309;SDS011;74488;49.036;11.472;2024-03-07T00:55:29;33.65;;;23.88;;
84309;SDS011;74488;49.036;11.472;2024-03-07T00:56:31;36.83;;;23.27;;
84309;SDS011;74488;49.036;11.472;2024-03-07T00:57:33;35.58;;;23.67;;
84309;SDS011;74488;49.036;11.472;2024-03-07T00:58:34;37.90;;;23.33;;
84309;SDS011;74488;49.036;11.472;2024-03-07T00:59:37;32.33;;;22.17;;
84309;SDS011;74488;49.036;11.472;2024-03-07T01:00:38;39.70;;;23.42;;
84309;SDS011;74488;49.036;11.472;2024-03-07T01:01:44;36.65;;;24.30;;
84309;SDS011;74488;49.036;11.472;2024-03-07T01:02:45;37.08;;;24.20;;
84309;SDS011;74488;49.036;11.472;2024-03-07T01:03:48;37.85;;;24.38;;
84309;SDS011;74488;49.036;11.472;2024-03-07T01:04:49;38.58;;;26.30;;
84309;SDS011;74488;49.036;11.472;2024-03-07T01:05:51;38.55;;;25.85;;
84309;SDS011;74488;49.036;11.472;2024-03-07T01:06:52;37.35;;;24.23;;
84309;SDS011;74488;49.036;11.472;2024-03-07T01:07:54;39.13;;;23.27;;
84309;SDS011;74488;49.036;11.472;2024-03-07T01:08:56;35.78;;;23.30;;
84309;SDS011;74488;49.036;11.472;2024-03-07T01:09:58;37.65;;;24.63;;
84309;SDS011;74488;49.036;11.472;2024-03-07T01:11:05;38.58;;;23.55;;
84309;SDS011;74488;49.036;11.472;2024-03-07T01:12:13;35.10;;;21.00;;
84309;SDS011;74488;49.036;11.472;2024-03-07T01:13:15;36.22;;;23.40;;
84309;SDS011;74488;49.036;11.472;2024-03-07T01:14:21;33.88;;;22.65;;
84309;SDS011;74488;49.036;11.472;2024-03-07T01:15:23;35.45;;;22.90;;
84309;SDS011;74488;49.036;11.472;2024-03-07T01:16:25;33.72;;;21.63;;
84309;SDS011;74488;49.036;11.472;2024-03-07T01:17:26;35.22;;;22.42;;
84309;SDS011;74488;49.036;11.472;2024-03-07T01:18:28;35.55;;;21.73;;
84309;SDS011;74488;49.036;11.472;2024-03-07T01:19:30;34.65;;;22.50;;
84309;SDS011;74488;49.036;11.472;2024-03-07T01:20:31;34.25;;;20.75;;
84309;SDS011;74488;49.036;11.472;2024-03-07T01:21:33;37.60;;;23.88;;
84309;SDS011;74488;49.036;11.472;2024-03-07T01:22:38;35.15;;;23.52;;
84309;SDS011;74488;49.036;11.472;2024-03-07T01:23:40;37.58;;;24.27;;
84309;SDS011;74488;49.036;11.472;2024-03-07T01:24:41;33.67;;;25.00;;
84309;SDS011;74488;49.036;11.472;2024-03-07T01:25:44;34.28;;;22.70;;
84309;SDS011;74488;49.036;11.472;2024-03-07T01:26:46;34.90;;;21.23;;
84309;SDS011;74488;49.036;11.472;2024-03-07T01:27:48;41.17;;;23.45;;
84309;SDS011;74488;49.036;11.472;2024-03-07T01:28:50;34.67;;;24.17;;
84309;SDS011;74488;49.036;11.472;2024-03-07T01:29:51;35.05;;;21.88;;
84309;SDS011;74488;49.036;11.472;2024-03-07T01:30:54;34.47;;;21.88;;
84309;SDS011;74488;49.036;11.472;2024-03-07T01:31:56;38.28;;;24.60;;
84309;SDS011;74488;49.036;11.472;2024-03-07T01:32:58;35.20;;;23.30;;
84309;SDS011;74488;49.036;11.472;2024-03-07T01:34:00;36.70;;;24.15;;
84309;SDS011;74488;49.036;11.472;2024-03-07T01:35:01;36.88;;;23.30;;
84309;SDS011;74488;49.036;11.472;2024-03-07T01:36:03;34.47;;;22.70;;
84309;SDS011;74488;49.036;11.472;2024-03-07T01:37:06;32.95;;;22.70;;
84309;SDS011;74488;49.036;11.472;2024-03-07T01:38:09;37.28;;;24.63;;
84309;SDS011;74488;49.036;11.472;2024-03-07T01:39:12;38.78;;;25.80;;
84309;SDS011;74488;49.036;11.472;2024-03-07T01:40:13;34.45;;;22.65;;
84309;SDS011;74488;49.036;11.472;2024-03-07T01:41:15;35.88;;;22.90;;
84309;SDS011;74488;49.036;11.472;2024-03-07T01:42:17;35.75;;;23.85;;
84309;SDS011;74488;49.036;11.472;2024-03-07T01:43:18;40.55;;;22.77;;
84309;SDS011;74488;49.036;11.472;2024-03-07T01:44:20;35.85;;;23.52;;
84309;SDS011;74488;49.036;11.472;2024-03-07T01:45:22;37.70;;;24.58;;
84309;SDS011;74488;49.036;11.472;2024-03-07T01:46:23;37.10;;;24.25;;
84309;SDS011;74488;49.036;11.472;2024-03-07T01:47:25;37.72;;;22.95;;
84309;SDS011;74488;49.036;11.472;2024-03-07T01:48:27;37.03;;;26.92;;
84309;SDS011;74488;49.036;11.472;2024-03-07T01:49:30;38.50;;;24.83;;
84309;SDS011;74488;49.036;11.472;2024-03-07T01:50:32;39.20;;;23.88;;
84309;SDS011;74488;49.036;11.472;2024-03-07T01:51:35;38.42;;;23.83;;
84309;SDS011;74488;49.036;11.472;2024-03-07T01:52:39;37.03;;;24.50;;
84309;SDS011;74488;49.036;11.472;2024-03-07T01:54:43;33.50;;;20.98;;
84309;SDS011;74488;49.036;11.472;2024-03-07T01:55:45;32.13;;;21.33;;
84309;SDS011;74488;49.036;11.472;2024-03-07T01:56:46;36.88;;;23.13;;
84309;SDS011;74488;49.036;11.472;2024-03-07T01:57:48;35.15;;;24.90;;
84309;SDS011;74488;49.036;11.472;2024-03-07T01:58:50;34.28;;;21.48;;
84309;SDS011;74488;49.036;11.472;2024-03-07T01:59:54;38.75;;;22.38;;
84309;SDS011;74488;49.036;11.472;2024-03-07T02:00:56;43.08;;;25.55;;
84309;SDS011;74488;49.036;11.472;2024-03-07T02:01:58;37.22;;;23.17;;
84309;SDS011;74488;49.036;11.472;2024-03-07T02:03:00;34.42;;;24.10;;
84309;SDS011;74488;49.036;11.472;2024-03-07T02:04:01;41.03;;;25.75;;
84309;SDS011;74488;49.036;11.472;2024-03-07T02:05:03;38.13;;;23.10;;
84309;SDS011;74488;49.036;11.472;2024-03-07T02:06:05;37.22;;;22.42;;
84309;SDS011;74488;49.036;11.472;2024-03-07T02:07:07;39.42;;;25.27;;
84309;SDS011;74488;49.036;11.472;2024-03-07T02:08:12;38.60;;;25.17;;
84309;SDS011;74488;49.036;11.472;2024-03-07T02:09:13;36.05;;;22.90;;
84309;SDS011;74488;49.036;11.472;2024-03-07T02:10:15;38.58;;;24.77;;
84309;SDS011;74488;49.036;11.472;2024-03-07T02:11:18;38.83;;;23.15;;
84309;SDS011;74488;49.036;11.472;2024-03-07T02:12:20;38.40;;;24.30;;
84309;SDS011;74488;49.036;11.472;2024-03-07T02:13:22;38.45;;;25.48;;
84309;SDS011;74488;49.036;11.472;2024-03-07T02:14:23;36.08;;;24.15;;
84309;SDS011;74488;49.036;11.472;2024-03-07T02:15:25;37.08;;;23.10;;
84309;SDS011;74488;49.036;11.472;2024-03-07T02:16:26;37.55;;;23.40;;
84309;SDS011;74488;49.036;11.472;2024-03-07T02:17:28;38.92;;;26.77;;
84309;SDS011;74488;49.036;11.472;2024-03-07T02:18:29;37.72;;;25.13;;
84309;SDS011;74488;49.036;11.472;2024-03-07T02:19:32;40.65;;;24.08;;
84309;SDS011;74488;49.036;11.472;2024-03-07T02:20:33;40.95;;;24.55;;
84309;SDS011;74488;49.036;11.472;2024-03-07T02:21:35;35.45;;;23.55;;
84309;SDS011;74488;49.036;11.472;2024-03-07T02:22:36;41.70;;;23.90;;
84309;SDS011;74488;49.036;11.472;2024-03-07T02:23:38;41.25;;;25.35;;
84309;SDS011;74488;49.036;11.472;2024-03-07T02:24:40;40.53;;;24.63;;
84309;SDS011;74488;49.036;11.472;2024-03-07T02:25:41;38.58;;;26.75;;
84309;SDS011;74488;49.036;11.472;2024-03-07T02:26:43;37.45;;;23.95;;
84309;SDS011;74488;49.036;11.472;2024-03-07T02:27:45;40.17;;;22.88;;
84309;SDS011;74488;49.036;11.472;2024-03-07T02:28:46;35.20;;;24.35;;
84309;SDS011;74488;49.036;11.472;2024-03-07T02:29:48;35.88;;;24.00;;
84309;SDS011;74488;49.036;11.472;2024-03-07T02:30:50;37.40;;;24.67;;
84309;SDS011;74488;49.036;11.472;2024-03-07T02:31:52;37.08;;;23.63;;
84309;SDS011;74488;49.036;11.472;2024-03-07T02:32:53;36.13;;;23.73;;
84309;SDS011;74488;49.036;11.472;2024-03-07T02:33:57;36.38;;;24.38;;
84309;SDS011;74488;49.036;11.472;2024-03-07T02:34:58;39.90;;;23.92;;
84309;SDS011;74488;49.036;11.472;2024-03-07T02:36:00;41.28;;;27.10;;
84309;SDS011;74488;49.036;11.472;2024-03-07T02:37:01;38.97;;;25.30;;
84309;SDS011;74488;49.036;11.472;2024-03-07T02:38:04;40.30;;;23.38;;
84309;SDS011;74488;49.036;11.472;2024-03-07T02:39:06;41.72;;;25.00;;
84309;SDS011;74488;49.036;11.472;2024-03-07T02:40:08;42.25;;;25.63;;
84309;SDS011;74488;49.036;11.472;2024-03-07T02:41:10;41.85;;;27.48;;
84309;SDS011;74488;49.036;11.472;2024-03-07T02:42:11;43.08;;;24.60;;
84309;SDS011;74488;49.036;11.472;2024-03-07T02:43:13;41.47;;;28.27;;
84309;SDS011;74488;49.036;11.472;2024-03-07T02:44:14;45.08;;;24.77;;
84309;SDS011;74488;49.036;11.472;2024-03-07T02:45:16;44.13;;;28.35;;
84309;SDS011;74488;49.036;11.472;2024-03-07T02:46:17;41.20;;;25.95;;
84309;SDS011;74488;49.036;11.472;2024-03-07T02:47:19;38.33;;;25.95;;
84309;SDS011;74488;49.036;11.472;2024-03-07T02:48:21;41.05;;;24.88;;
84309;SDS011;74488;49.036;11.472;2024-03-07T02:49:22;39.83;;;26.30;;
84309;SDS011;74488;49.036;11.472;2024-03-07T02:50:24;42.42;;;26.17;;
84309;SDS011;74488;49.036;11.472;2024-03-07T02:51:26;39.53;;;27.20;;
84309;SDS011;74488;49.036;11.472;2024-03-07T02:52:27;39.15;;;24.92;;
84309;SDS011;74488;49.036;11.472;2024-03-07T02:53:29;42.20;;;25.35;;
84309;SDS011;74488;49.036;11.472;2024-03-07T02:54:30;42.45;;;26.42;;
84309;SDS011;74488;49.036;11.472;2024-03-07T02:55:33;42.95;;;25.70;;
84309;SDS011;74488;49.036;11.472;2024-03-07T02:56:35;43.85;;;26.02;;
84309;SDS011;74488;49.036;11.472;2024-03-07T02:57:37;44.53;;;26.20;;
84309;SDS011;74488;49.036;11.472;2024-03-07T02:58:38;41.90;;;25.08;;
84309;SDS011;74488;49.036;11.472;2024-03-07T02:59:40;39.58;;;26.35;;
84309;SDS011;74488;49.036;11.472;2024-03-07T03:00:42;42.00;;;28.52;;
84309;SDS011;74488;49.036;11.472;2024-03-07T03:01:43;38.60;;;25.00;;
84309;SDS011;74488;49.036;11.472;2024-03-07T03:02:46;44.70;;;26.90;;
84309;SDS011;74488;49.036;11.472;2024-03-07T03:03:48;38.75;;;24.05;;
84309;SDS011;74488;49.036;11.472;2024-03-07T03:04:50;42.33;;;27.50;;
84309;SDS011;74488;49.036;11.472;2024-03-07T03:05:51;41.38;;;27.77;;
84309;SDS011;74488;49.036;11.472;2024-03-07T03:06:53;41.50;;;24.98;;
84309;SDS011;74488;49.036;11.472;2024-03-07T03:07:54;39.05;;;26.40;;
84309;SDS011;74488;49.036;11.472;2024-03-07T03:08:56;40.53;;;26.27;;
84309;SDS011;74488;49.036;11.472;2024-03-07T03:09:58;43.05;;;25.35;;
84309;SDS011;74488;49.036;11.472;2024-03-07T03:10:59;44.75;;;27.55;;
84309;SDS011;74488;49.036;11.472;2024-03-07T03:12:01;39.08;;;24.00;;
84309;SDS011;74488;49.036;11.472;2024-03-07T03:13:02;41.20;;;27.40;;
84309;SDS011;74488;49.036;11.472;2024-03-07T03:14:04;38.75;;;25.15;;
84309;SDS011;74488;49.036;11.472;2024-03-07T03:15:06;40.70;;;26.70;;
84309;SDS011;74488;49.036;11.472;2024-03-07T03:16:08;42.60;;;25.33;;
84309;SDS011;74488;49.036;11.472;2024-03-07T03:17:11;41.80;;;26.80;;
84309;SDS011;74488;49.036;11.472;2024-03-07T03:18:12;43.80;;;27.25;;
84309;SDS011;74488;49.036;11.472;2024-03-07T03:19:14;42.83;;;26.83;;
84309;SDS011;74488;49.036;11.472;2024-03-07T03:20:16;39.20;;;25.42;;
84309;SDS011;74488;49.036;11.472;2024-03-07T03:21:27;42.30;;;26.75;;
84309;SDS011;74488;49.036;11.472;2024-03-07T03:22:29;42.50;;;25.73;;
84309;SDS011;74488;49.036;11.472;2024-03-07T03:23:30;42.88;;;24.80;;
84309;SDS011;74488;49.036;11.472;2024-03-07T03:24:32;43.25;;;25.98;;
84309;SDS011;74488;49.036;11.472;2024-03-07T03:25:33;42.83;;;26.00;;
84309;SDS011;74488;49.036;11.472;2024-03-07T03:26:36;39.80;;;26.45;;
84309;SDS011;74488;49.036;11.472;2024-03-07T03:27:37;39.92;;;25.30;;
84309;SDS011;74488;49.036;11.472;2024-03-07T03:28:40;37.72;;;22.83;;
84309;SDS011;74488;49.036;11.472;2024-03-07T03:29:42;41.47;;;24.85;;
84309;SDS011;74488;49.036;11.472;2024-03-07T03:30:44;37.83;;;24.70;;
84309;SDS011;74488;49.036;11.472;2024-03-07T03:31:46;44.83;;;26.42;;
84309;SDS011;74488;49.036;11.472;2024-03-07T03:32:47;39.30;;;25.92;;
84309;SDS011;74488;49.036;11.472;2024-03-07T03:33:49;42.13;;;25.52;;
84309;SDS011;74488;49.036;11.472;2024-03-07T03:34:52;40.95;;;24.90;;
84309;SDS011;74488;49.036;11.472;2024-03-07T03:35:53;40.08;;;24.38;;
84309;SDS011;74488;49.036;11.472;2024-03-07T03:36:56;38.47;;;25.70;;
84309;SDS011;74488;49.036;11.472;2024-03-07T03:37:58;42.38;;;25.50;;
84309;SDS011;74488;49.036;11.472;2024-03-07T03:38:59;44.25;;;26.35;;
84309;SDS011;74488;49.036;11.472;2024-03-07T03:40:01;39.42;;;24.42;;
84309;SDS011;74488;49.036;11.472;2024-03-07T03:41:02;41.30;;;26.27;;
84309;SDS011;74488;49.036;11.472;2024-03-07T03:42:06;39.72;;;24.15;;
84309;SDS011;74488;49.036;11.472;2024-03-07T03:43:08;39.88;;;23.67;;
84309;SDS011;74488;49.036;11.472;2024-03-07T03:44:09;44.95;;;27.98;;
84309;SDS011;74488;49.036;11.472;2024-03-07T03:45:12;43.15;;;24.67;;
84309;SDS011;74488;49.036;11.472;2024-03-07T03:46:15;45.22;;;27.73;;
84309;SDS011;74488;49.036;11.472;2024-03-07T03:47:17;45.00;;;28.08;;
84309;SDS011;74488;49.036;11.472;2024-03-07T03:48:18;44.72;;;25.60;;
84309;SDS011;74488;49.036;11.472;2024-03-07T03:49:20;43.85;;;27.30;;
84309;SDS011;74488;49.036;11.472;2024-03-07T03:50:21;47.60;;;28.85;;
84309;SDS011;74488;49.036;11.472;2024-03-07T03:51:24;41.63;;;28.83;;
84309;SDS011;74488;49.036;11.472;2024-03-07T03:52:26;41.85;;;27.13;;
84309;SDS011;74488;49.036;11.472;2024-03-07T03:53:30;43.58;;;27.38;;
84309;SDS011;74488;49.036;11.472;2024-03-07T03:54:31;42.80;;;28.95;;
84309;SDS011;74488;49.036;11.472;2024-03-07T03:55:33;39.13;;;24.10;;
84309;SDS011;74488;49.036;11.472;2024-03-07T03:56:35;41.42;;;27.10;;
84309;SDS011;74488;49.036;11.472;2024-03-07T03:57:38;41.45;;;27.83;;
84309;SDS011;74488;49.036;11.472;2024-03-07T03:58:41;43.22;;;26.27;;
84309;SDS011;74488;49.036;11.472;2024-03-07T03:59:42;42.42;;;28.08;;
84309;SDS011;74488;49.036;11.472;2024-03-07T04:00:45;44.33;;;26.60;;
84309;SDS011;74488;49.036;11.472;2024-03-07T04:01:47;45.25;;;26.10;;
84309;SDS011;74488;49.036;11.472;2024-03-07T04:02:49;47.95;;;27.70;;
84309;SDS011;74488;49.036;11.472;2024-03-07T04:03:51;45.95;;;26.42;;
84309;SDS011;74488;49.036;11.472;2024-03-07T04:04:53;46.42;;;25.90;;
84309;SDS011;74488;49.036;11.472;2024-03-07T04:05:54;45.90;;;26.63;;
84309;SDS011;74488;49.036;11.472;2024-03-07T04:06:59;44.58;;;27.20;;
84309;SDS011;74488;49.036;11.472;2024-03-07T04:08:00;44.95;;;27.90;;
84309;SDS011;74488;49.036;11.472;2024-03-07T04:09:02;43.38;;;26.60;;
84309;SDS011;74488;49.036;11.472;2024-03-07T04:10:04;47.17;;;27.33;;
84309;SDS011;74488;49.036;11.472;2024-03-07T04:11:09;42.22;;;27.20;;
84309;SDS011;74488;49.036;11.472;2024-03-07T04:12:12;41.95;;;25.92;;
84309;SDS011;74488;49.036;11.472;2024-03-07T04:13:14;42.75;;;27.63;;
84309;SDS011;74488;49.036;11.472;2024-03-07T04:14:16;39.08;;;24.70;;
84309;SDS011;74488;49.036;11.472;2024-03-07T04:15:17;39.80;;;24.92;;
84309;SDS011;74488;49.036;11.472;2024-03-07T04:16:20;39.30;;;26.52;;
84309;SDS011;74488;49.036;11.472;2024-03-07T04:17:22;46.88;;;26.35;;
84309;SDS011;74488;49.036;11.472;2024-03-07T04:18:23;43.72;;;27.95;;
84309;SDS011;74488;49.036;11.472;2024-03-07T04:19:25;39.10;;;24.65;;
84309;SDS011;74488;49.036;11.472;2024-03-07T04:20:26;44.05;;;26.60;;
84309;SDS011;74488;49.036;11.472;2024-03-07T04:21:28;46.45;;;26.55;;
84309;SDS011;74488;49.036;11.472;2024-03-07T04:22:29;40.58;;;25.85;;
84309;SDS011;74488;49.036;11.472;2024-03-07T04:23:31;43.88;;;27.52;;
84309;SDS011;74488;49.036;11.472;2024-03-07T04:24:32;42.00;;;26.05;;
84309;SDS011;74488;49.036;11.472;2024-03-07T04:25:34;45.55;;;27.80;;
84309;SDS011;74488;49.036;11.472;2024-03-07T04:26:35;46.20;;;27.08;;
84309;SDS011;74488;49.036;11.472;2024-03-07T04:27:37;44.08;;;26.77;;
84309;SDS011;74488;49.036;11.472;2024-03-07T04:28:41;42.75;;;28.33;;
84309;SDS011;74488;49.036;11.472;2024-03-07T04:29:42;45.15;;;28.73;;
84309;SDS011;74488;49.036;11.472;2024-03-07T04:30:44;46.50;;;27.15;;
84309;SDS011;74488;49.036;11.472;2024-03-07T04:31:45;44.70;;;28.75;;
84309;SDS011;74488;49.036;11.472;2024-03-07T04:32:47;44.58;;;29.08;;
84309;SDS011;74488;49.036;11.472;2024-03-07T04:33:49;42.65;;;25.52;;
84309;SDS011;74488;49.036;11.472;2024-03-07T04:34:52;43.97;;;27.50;;
84309;SDS011;74488;49.036;11.472;2024-03-07T04:35:53;42.33;;;25.40;;
84309;SDS011;74488;49.036;11.472;2024-03-07T04:36:55;45.63;;;28.85;;
84309;SDS011;74488;49.036;11.472;2024-03-07T04:37:56;46.47;;;29.60;;
84309;SDS011;74488;49.036;11.472;2024-03-07T04:38:58;45.38;;;27.27;;
84309;SDS011;74488;49.036;11.472;2024-03-07T04:40:00;49.72;;;28.60;;
84309;SDS011;74488;49.036;11.472;2024-03-07T04:41:01;45.00;;;27.30;;
84309;SDS011;74488;49.036;11.472;2024-03-07T04:42:05;41.80;;;25.88;;
84309;SDS011;74488;49.036;11.472;2024-03-07T04:43:08;45.85;;;26.05;;
84309;SDS011;74488;49.036;11.472;2024-03-07T04:44:09;48.47;;;28.50;;
84309;SDS011;74488;49.036;11.472;2024-03-07T04:45:11;41.25;;;27.77;;
84309;SDS011;74488;49.036;11.472;2024-03-07T04:46:14;43.55;;;28.35;;
84309;SDS011;74488;49.036;11.472;2024-03-07T04:47:16;45.92;;;28.63;;
84309;SDS011;74488;49.036;11.472;2024-03-07T04:48:17;41.80;;;25.02;;
84309;SDS011;74488;49.036;11.472;2024-03-07T04:49:19;44.92;;;27.63;;
84309;SDS011;74488;49.036;11.472;2024-03-07T04:50:20;43.45;;;26.67;;
84309;SDS011;74488;49.036;11.472;2024-03-07T04:51:22;46.78;;;28.90;;
84309;SDS011;74488;49.036;11.472;2024-03-07T04:52:24;48.28;;;28.85;;
84309;SDS011;74488;49.036;11.472;2024-03-07T04:53:25;48.50;;;30.05;;
84309;SDS011;74488;49.036;11.472;2024-03-07T04:54:27;44.20;;;27.55;;
84309;SDS011;74488;49.036;11.472;2024-03-07T04:55:30;47.05;;;29.48;;
84309;SDS011;74488;49.036;11.472;2024-03-07T04:56:31;43.22;;;25.55;;
84309;SDS011;74488;49.036;11.472;2024-03-07T04:57:34;45.08;;;26.55;;
84309;SDS011;74488;49.036;11.472;2024-03-07T04:58:36;46.80;;;29.83;;
84309;SDS011;74488;49.036;11.472;2024-03-07T04:59:38;49.00;;;27.35;;
84309;SDS011;74488;49.036;11.472;2024-03-07T05:00:39;46.65;;;26.98;;
84309;SDS011;74488;49.036;11.472;2024-03-07T05:01:41;41.75;;;24.92;;
84309;SDS011;74488;49.036;11.472;2024-03-07T05:02:44;42.88;;;27.02;;
84309;SDS011;74488;49.036;11.472;2024-03-07T05:03:47;44.80;;;25.33;;
84309;SDS011;74488;49.036;11.472;2024-03-07T05:04:48;45.55;;;29.27;;
84309;SDS011;74488;49.036;11.472;2024-03-07T05:05:51;44.03;;;29.38;;
84309;SDS011;74488;49.036;11.472;2024-03-07T05:06:53;39.63;;;27.60;;
84309;SDS011;74488;49.036;11.472;2024-03-07T05:07:54;43.78;;;26.45;;
84309;SDS011;74488;49.036;11.472;2024-03-07T05:08:57;47.88;;;28.13;;
84309;SDS011;74488;49.036;11.472;2024-03-07T05:09:59;47.28;;;27.02;;
84309;SDS011;74488;49.036;11.472;2024-03-07T05:11:00;49.40;;;29.42;;
84309;SDS011;74488;49.036;11.472;2024-03-07T05:12:02;48.67;;;28.63;;
84309;SDS011;74488;49.036;11.472;2024-03-07T05:13:04;46.25;;;27.60;;
84309;SDS011;74488;49.036;11.472;2024-03-07T05:14:07;42.47;;;25.17;;
84309;SDS011;74488;49.036;11.472;2024-03-07T05:15:08;48.50;;;26.77;;
84309;SDS011;74488;49.036;11.472;2024-03-07T05:16:13;48.65;;;29.45;;
84309;SDS011;74488;49.036;11.472;2024-03-07T05:17:14;47.55;;;28.88;;
84309;SDS011;74488;49.036;11.472;2024-03-07T05:18:16;45.38;;;26.92;;
84309;SDS011;74488;49.036;11.472;2024-03-07T05:19:18;48.22;;;27.20;;
84309;SDS011;74488;49.036;11.472;2024-03-07T05:20:20;42.72;;;27.10;;
84309;SDS011;74488;49.036;11.472;2024-03-07T05:21:21;38.22;;;24.60;;
84309;SDS011;74488;49.036;11.472;2024-03-07T05:22:52;47.42;;;29.65;;
84309;SDS011;74488;49.036;11.472;2024-03-07T05:23:53;45.40;;;27.77;;
84309;SDS011;74488;49.036;11.472;2024-03-07T05:24:55;45.45;;;27.02;;
84309;SDS011;74488;49.036;11.472;2024-03-07T05:25:58;45.95;;;26.05;;
84309;SDS011;74488;49.036;11.472;2024-03-07T05:26:59;44.08;;;25.73;;
84309;SDS011;74488;49.036;11.472;2024-03-07T05:28:01;40.75;;;27.02;;
84309;SDS011;74488;49.036;11.472;2024-03-07T05:29:04;43.80;;;26.23;;
84309;SDS011;74488;49.036;11.472;2024-03-07T05:30:07;47.08;;;29.33;;
84309;SDS011;74488;49.036;11.472;2024-03-07T05:31:13;45.55;;;27.88;;
84309;SDS011;74488;49.036;11.472;2024-03-07T05:33:29;42.42;;;27.05;;
84309;SDS011;74488;49.036;11.472;2024-03-07T05:34:31;50.95;;;31.63;;
84309;SDS011;74488;49.036;11.472;2024-03-07T05:35:34;43.15;;;27.95;;
84309;SDS011;74488;49.036;11.472;2024-03-07T05:36:36;45.53;;;26.52;;
84309;SDS011;74488;49.036;11.472;2024-03-07T05:37:45;46.28;;;26.10;;
84309;SDS011;74488;49.036;11.472;2024-03-07T05:38:48;47.38;;;26.20;;
84309;SDS011;74488;49.036;11.472;2024-03-07T05:39:50;47.03;;;26.23;;
84309;SDS011;74488;49.036;11.472;2024-03-07T05:40:52;45.28;;;26.55;;
84309;SDS011;74488;49.036;11.472;2024-03-07T05:41:53;46.05;;;30.75;;
84309;SDS011;74488;49.036;11.472;2024-03-07T05:42:58;43.70;;;25.20;;
84309;SDS011;74488;49.036;11.472;2024-03-07T05:44:00;41.45;;;30.17;;
84309;SDS011;74488;49.036;11.472;2024-03-07T05:45:02;47.83;;;29.10;;
84309;SDS011;74488;49.036;11.472;2024-03-07T05:46:04;44.45;;;26.17;;
84309;SDS011;74488;49.036;11.472;2024-03-07T05:47:08;44.50;;;25.88;;
84309;SDS011;74488;49.036;11.472;2024-03-07T05:48:16;43.72;;;27.77;;
84309;SDS011;74488;49.036;11.472;2024-03-07T05:49:18;45.83;;;26.80;;
84309;SDS011;74488;49.036;11.472;2024-03-07T05:50:21;44.38;;;26.65;;
84309;SDS011;74488;49.036;11.472;2024-03-07T05:51:23;50.40;;;30.58;;
84309;SDS011;74488;49.036;11.472;2024-03-07T05:52:24;44.53;;;26.60;;
84309;SDS011;74488;49.036;11.472;2024-03-07T05:53:26;44.97;;;27.77;;
84309;SDS011;74488;49.036;11.472;2024-03-07T05:54:27;45.17;;;26.63;;
84309;SDS011;74488;49.036;11.472;2024-03-07T05:55:30;45.72;;;27.17;;
84309;SDS011;74488;49.036;11.472;2024-03-07T05:56:33;40.58;;;26.40;;
84309;SDS011;74488;49.036;11.472;2024-03-07T05:57:37;42.30;;;26.42;;
84309;SDS011;74488;49.036;11.472;2024-03-07T05:58:44;41.10;;;27.08;;
84309;SDS011;74488;49.036;11.472;2024-03-07T05:59:45;45.92;;;27.25;;
84309;SDS011;74488;49.036;11.472;2024-03-07T06:00:49;43.20;;;24.20;;
84309;SDS011;74488;49.036;11.472;2024-03-07T06:01:51;43.45;;;26.20;;
84309;SDS011;74488;49.036;11.472;2024-03-07T06:02:52;43.55;;;28.58;;